createdAt,value
2019-01-03T00:00:00.454Z,68.47
2019-01-03T00:01:00.453Z,68.15
2019-01-03T00:02:00.431Z,68.78
2019-01-03T00:03:00.447Z,68.65
2019-01-03T00:04:00.417Z,68.89
2019-01-03T00:05:00.398Z,68.75
2019-01-03T00:06:00.390Z,69.38
2019-01-03T00:07:00.374Z,69.38
2019-01-03T00:09:27.954Z,69.27
2019-01-03T00:10:27.948Z,69.27
2019-01-03T00:11:48.065Z,69.17
2019-01-03T00:13:09.986Z,69.48
2019-01-03T00:14:09.957Z,69.70
2019-01-03T00:15:09.945Z,69.90
2019-01-03T00:16:09.933Z,69.70
2019-01-03T00:17:09.922Z,69.48
2019-01-03T00:18:09.911Z,69.70
2019-01-03T00:19:09.904Z,70.22
2019-01-03T00:20:09.889Z,70.11
2019-01-03T00:21:09.883Z,69.83
2019-01-03T00:22:09.868Z,69.83
2019-01-03T00:23:09.860Z,70.15
2019-01-03T00:24:09.858Z,70.04
2019-01-03T00:25:09.835Z,70.01
2019-01-03T00:26:09.823Z,70.04
2019-01-03T00:27:09.814Z,69.83
2019-01-03T00:28:09.848Z,70.25
2019-01-03T00:29:09.791Z,70.46
2019-01-03T00:30:09.779Z,70.46
2019-01-03T00:31:09.768Z,70.67
2019-01-03T00:32:09.761Z,70.43
2019-01-03T00:33:09.748Z,71.41
2019-01-03T00:34:09.738Z,70.85
2019-01-03T00:35:09.728Z,71.37
2019-01-03T00:36:09.714Z,71.20
2019-01-03T00:37:09.705Z,71.16
2019-01-03T00:38:09.692Z,71.26
2019-01-03T00:39:09.683Z,70.78
2019-01-03T00:40:09.670Z,71.51
2019-01-03T00:41:09.658Z,71.20
2019-01-03T00:42:09.648Z,71.37
2019-01-03T00:43:09.637Z,71.93
2019-01-03T00:44:09.636Z,71.58
2019-01-03T00:45:09.615Z,71.61
2019-01-03T00:46:09.605Z,71.93
2019-01-03T00:47:09.603Z,71.61
2019-01-03T00:48:09.583Z,71.20
2019-01-03T00:49:09.576Z,71.79
2019-01-03T00:50:09.561Z,71.37
2019-01-03T00:51:09.552Z,72.42
2019-01-03T00:52:09.538Z,71.89
2019-01-03T00:53:09.528Z,72.11
2019-01-03T00:54:09.518Z,72.31
2019-01-03T00:55:09.505Z,72.21
2019-01-03T00:56:09.500Z,71.89
2019-01-03T00:57:09.483Z,72.11
2019-01-03T00:58:09.508Z,71.89
2019-01-03T00:59:09.462Z,72.00
2019-01-03T01:00:09.449Z,72.31
2019-01-03T01:01:09.440Z,72.21
2019-01-03T01:02:09.429Z,72.42
2019-01-03T01:03:09.417Z,72.31
2019-01-03T01:04:09.417Z,72.52
2019-01-03T01:05:09.399Z,72.63
2019-01-03T01:06:09.386Z,72.42
2019-01-03T01:07:09.373Z,72.74
2019-01-03T01:08:09.367Z,72.74
2019-01-03T01:09:09.356Z,72.63
2019-01-03T01:10:09.341Z,73.05
2019-01-03T01:11:09.329Z,72.31
2019-01-03T01:12:09.319Z,72.21
2019-01-03T01:13:09.314Z,72.63
2019-01-03T01:14:09.297Z,72.63
2019-01-03T01:15:09.290Z,72.74
2019-01-03T01:16:09.283Z,72.94
2019-01-03T01:17:09.264Z,72.63
2019-01-03T01:18:09.255Z,72.74
2019-01-03T01:19:09.246Z,72.52
2019-01-03T01:20:09.230Z,72.84
2019-01-03T01:21:09.220Z,73.26
2019-01-03T01:22:09.219Z,73.47
2019-01-03T01:23:09.197Z,73.05
2019-01-03T01:24:09.220Z,73.05
2019-01-03T01:25:09.179Z,73.47
2019-01-03T01:26:09.166Z,73.68
2019-01-03T01:27:09.155Z,73.15
2019-01-03T01:28:09.146Z,73.57
2019-01-03T01:29:09.135Z,73.61
2019-01-03T01:30:09.123Z,73.57
2019-01-03T01:31:09.111Z,73.47
2019-01-03T01:32:09.099Z,73.15
2019-01-03T01:33:09.088Z,73.26
2019-01-03T01:34:09.077Z,73.79
2019-01-03T01:35:09.066Z,73.68
2019-01-03T01:36:09.058Z,73.57
2019-01-03T01:37:09.045Z,73.82
2019-01-03T01:38:09.033Z,74.87
2019-01-03T01:39:09.026Z,74.76
2019-01-03T01:40:09.012Z,74.24
2019-01-03T01:41:09.001Z,74.13
2019-01-03T01:42:08.992Z,74.44
2019-01-03T01:43:08.984Z,74.24
2019-01-03T01:44:08.967Z,74.65
2019-01-03T01:45:08.956Z,74.13
2019-01-03T01:46:08.952Z,74.55
2019-01-03T01:47:08.934Z,74.34
2019-01-03T01:48:08.926Z,74.44
2019-01-03T01:49:08.914Z,74.34
2019-01-03T01:50:08.902Z,74.44
2019-01-03T01:51:08.945Z,74.76
2019-01-03T01:52:08.880Z,74.44
2019-01-03T01:53:08.869Z,74.87
2019-01-03T01:54:08.861Z,74.97
2019-01-03T01:55:08.851Z,74.97
2019-01-03T01:56:08.844Z,74.97
2019-01-03T01:57:08.829Z,74.76
2019-01-03T01:58:08.815Z,75.07
2019-01-03T01:59:08.807Z,74.97
2019-01-03T02:00:08.795Z,75.49
2019-01-03T02:01:08.785Z,75.29
2019-01-03T02:02:08.771Z,75.07
2019-01-03T02:03:08.764Z,75.18
2019-01-03T02:04:08.749Z,75.21
2019-01-03T02:05:08.750Z,75.70
2019-01-03T02:06:08.734Z,75.53
2019-01-03T02:07:08.715Z,75.70
2019-01-03T02:08:08.706Z,75.60
2019-01-03T02:09:08.695Z,75.60
2019-01-03T02:10:08.714Z,76.12
2019-01-03T02:11:08.717Z,76.43
2019-01-03T02:12:08.667Z,76.43
2019-01-03T02:13:08.725Z,76.23
2019-01-03T02:14:08.655Z,76.57
2019-01-03T02:15:08.665Z,76.16
2019-01-03T02:16:08.638Z,76.79
2019-01-03T02:17:08.619Z,77.07
2019-01-03T02:18:08.602Z,77.00
2019-01-03T02:19:08.585Z,76.43
2019-01-03T02:20:29.042Z,76.12
2019-01-03T02:21:50.667Z,76.02
2019-01-03T02:22:50.641Z,75.70
2019-01-03T02:23:50.627Z,76.12
2019-01-03T02:24:50.622Z,76.23
2019-01-03T02:25:50.605Z,76.02
2019-01-03T02:26:50.595Z,76.86
2019-01-03T02:27:50.610Z,76.43
2019-01-03T02:29:11.185Z,75.92
2019-01-03T02:30:32.704Z,76.54
2019-01-03T02:31:32.702Z,77.91
2019-01-03T02:32:32.658Z,77.91
2019-01-03T02:33:51.289Z,77.80
2019-01-03T02:34:32.598Z,78.85
2019-01-03T02:35:32.579Z,78.43
2019-01-03T02:36:32.570Z,77.38
2019-01-03T02:37:32.554Z,77.91
2019-01-03T02:38:32.551Z,78.01
2019-01-03T02:39:32.533Z,77.91
2019-01-03T02:40:32.522Z,77.91
2019-01-03T02:41:32.518Z,77.91
2019-01-03T02:42:32.500Z,77.91
2019-01-03T02:43:32.491Z,78.11
2019-01-03T02:44:32.481Z,77.80
2019-01-03T02:45:32.468Z,77.80
2019-01-03T02:46:32.457Z,77.80
2019-01-03T02:47:32.446Z,77.59
2019-01-03T02:48:32.436Z,77.91
2019-01-03T02:49:32.440Z,77.91
2019-01-03T02:50:32.415Z,77.80
2019-01-03T02:51:32.402Z,77.80
2019-01-03T02:52:32.390Z,77.48
2019-01-03T02:53:32.381Z,77.38
2019-01-03T02:54:32.370Z,77.70
2019-01-03T02:55:32.358Z,77.59
2019-01-03T02:56:32.349Z,77.91
2019-01-03T02:57:32.335Z,78.43
2019-01-03T02:58:32.325Z,78.43
2019-01-03T02:59:32.316Z,78.22
2019-01-03T03:00:32.303Z,77.70
2019-01-03T03:01:32.298Z,77.70
2019-01-03T03:02:32.297Z,77.38
2019-01-03T03:03:32.272Z,77.45
2019-01-03T03:04:32.299Z,77.70
2019-01-03T03:05:32.250Z,78.33
2019-01-03T03:06:32.237Z,78.43
2019-01-03T03:07:32.227Z,78.43
2019-01-03T03:08:32.218Z,78.29
2019-01-03T03:09:32.204Z,78.29
2019-01-03T03:10:32.194Z,78.11
2019-01-03T03:11:32.185Z,78.39
2019-01-03T03:12:32.171Z,78.50
2019-01-03T03:13:32.196Z,78.39
2019-01-03T03:14:32.154Z,78.33
2019-01-03T03:15:32.141Z,77.91
2019-01-03T03:16:32.130Z,78.60
2019-01-03T03:17:32.116Z,78.92
2019-01-03T03:18:32.105Z,78.50
2019-01-03T03:19:32.098Z,78.74
2019-01-03T03:20:32.085Z,78.71
2019-01-03T03:21:32.075Z,78.71
2019-01-03T03:22:32.064Z,78.81
2019-01-03T03:23:32.064Z,78.81
2019-01-03T03:24:32.042Z,78.81
2019-01-03T03:25:32.030Z,78.71
2019-01-03T03:26:32.019Z,78.81
2019-01-03T03:27:32.009Z,78.43
2019-01-03T03:28:32.000Z,78.81
2019-01-03T03:29:31.990Z,78.92
2019-01-03T03:30:31.975Z,78.92
2019-01-03T03:31:31.965Z,78.81
2019-01-03T03:32:31.953Z,78.92
2019-01-03T03:33:31.941Z,79.44
2019-01-03T03:34:31.933Z,79.44
2019-01-03T03:35:31.937Z,79.55
2019-01-03T03:36:31.913Z,79.61
2019-01-03T03:37:31.900Z,79.23
2019-01-03T03:38:31.886Z,78.92
2019-01-03T03:39:31.891Z,79.44
2019-01-03T03:40:31.865Z,79.23
2019-01-03T03:41:31.854Z,79.02
2019-01-03T03:42:31.842Z,79.02
2019-01-03T03:43:31.843Z,79.55
2019-01-03T03:44:31.825Z,79.34
2019-01-03T03:45:31.811Z,79.34
2019-01-03T03:46:31.803Z,79.13
2019-01-03T03:47:31.790Z,79.34
2019-01-03T03:48:31.782Z,79.65
2019-01-03T03:49:31.793Z,79.02
2019-01-03T03:50:31.755Z,79.13
2019-01-03T03:51:31.744Z,79.97
2019-01-03T03:52:31.735Z,79.97
2019-01-03T03:53:31.732Z,79.75
2019-01-03T03:54:31.711Z,80.28
2019-01-03T03:55:31.712Z,79.65
2019-01-03T03:56:31.690Z,79.65
2019-01-03T03:57:31.681Z,79.75
2019-01-03T03:58:31.673Z,79.75
2019-01-03T03:59:31.659Z,79.75
2019-01-03T04:00:31.647Z,79.97
2019-01-03T04:01:31.636Z,79.65
2019-01-03T04:02:31.664Z,79.65
2019-01-03T04:03:31.617Z,79.97
2019-01-03T04:04:31.604Z,79.86
2019-01-03T04:05:31.589Z,79.75
2019-01-03T04:06:31.581Z,79.65
2019-01-03T04:07:31.568Z,79.86
2019-01-03T04:08:31.560Z,79.65
2019-01-03T04:09:31.547Z,79.75
2019-01-03T04:10:31.537Z,79.97
2019-01-03T04:11:31.526Z,80.49
2019-01-03T04:12:31.515Z,80.28
2019-01-03T04:13:31.509Z,80.91
2019-01-03T04:14:31.493Z,80.91
2019-01-03T04:15:31.482Z,80.60
2019-01-03T04:16:31.470Z,80.70
2019-01-03T04:17:31.461Z,81.12
2019-01-03T04:18:31.448Z,81.23
2019-01-03T04:19:31.439Z,81.12
2019-01-03T04:20:31.430Z,81.43
2019-01-03T04:21:31.421Z,81.54
2019-01-03T04:22:31.406Z,81.33
2019-01-03T04:23:31.393Z,80.70
2019-01-03T04:24:31.383Z,81.43
2019-01-03T04:25:31.413Z,81.54
2019-01-03T04:26:31.361Z,81.85
2019-01-03T04:27:31.351Z,81.75
2019-01-03T04:28:31.337Z,81.75
2019-01-03T04:29:31.326Z,81.75
2019-01-03T04:30:31.321Z,82.17
2019-01-03T04:31:31.306Z,82.17
2019-01-03T04:32:31.300Z,82.27
2019-01-03T04:33:31.294Z,82.06
2019-01-03T04:34:31.276Z,82.17
2019-01-03T04:35:31.262Z,82.17
2019-01-03T04:36:31.261Z,82.59
2019-01-03T04:37:31.239Z,82.38
2019-01-03T04:38:50.874Z,82.59
2019-01-03T04:40:13.265Z,82.38
2019-01-03T04:41:13.251Z,82.79
2019-01-03T04:42:13.242Z,82.69
2019-01-03T04:43:13.231Z,82.59
2019-01-03T04:44:13.219Z,82.79
2019-01-03T04:45:13.240Z,83.11
2019-01-03T04:46:13.196Z,83.11
2019-01-03T04:47:13.186Z,82.86
2019-01-03T04:48:13.175Z,82.79
2019-01-03T04:49:13.170Z,83.01
2019-01-03T04:50:13.156Z,82.86
2019-01-03T04:51:13.141Z,82.97
2019-01-03T04:52:13.135Z,83.07
2019-01-03T04:53:13.119Z,83.07
2019-01-03T04:54:13.110Z,82.79
2019-01-03T04:55:13.112Z,82.90
2019-01-03T04:56:13.087Z,82.97
2019-01-03T04:57:13.077Z,83.11
2019-01-03T04:58:13.066Z,83.32
2019-01-03T04:59:13.057Z,83.18
2019-01-03T05:00:13.044Z,83.22
2019-01-03T05:01:13.032Z,83.18
2019-01-03T05:02:13.030Z,83.18
2019-01-03T05:03:13.015Z,83.18
2019-01-03T05:04:13.000Z,83.11
2019-01-03T05:05:12.989Z,83.18
2019-01-03T05:06:12.980Z,83.39
2019-01-03T05:07:12.967Z,83.39
2019-01-03T05:08:12.955Z,83.07
2019-01-03T05:09:12.945Z,83.42
2019-01-03T05:10:12.939Z,85.48
2019-01-03T05:11:12.930Z,87.12
2019-01-03T05:12:12.917Z,87.79
2019-01-03T05:13:12.901Z,86.28
2019-01-03T05:14:12.895Z,84.92
2019-01-03T05:15:12.887Z,84.39
2019-01-03T05:16:12.872Z,83.66
2019-01-03T05:17:12.861Z,83.45
2019-01-03T05:18:12.848Z,83.03
2019-01-03T05:19:12.837Z,83.03
2019-01-03T05:20:12.823Z,82.82
2019-01-03T05:21:12.816Z,82.86
2019-01-03T05:22:12.802Z,82.82
2019-01-03T05:23:12.804Z,82.72
2019-01-03T05:24:12.781Z,82.72
2019-01-03T05:25:12.770Z,82.93
2019-01-03T05:26:12.759Z,83.14
2019-01-03T05:27:12.767Z,83.25
2019-01-03T05:28:12.753Z,82.82
2019-01-03T05:29:12.730Z,82.82
2019-01-03T05:30:18.263Z,83.14
2019-01-03T05:31:13.709Z,82.72
2019-01-03T05:32:12.693Z,83.25
2019-01-03T05:33:12.685Z,83.03
2019-01-03T05:34:12.675Z,83.03
2019-01-03T05:35:12.660Z,83.14
2019-01-03T05:36:12.653Z,83.14
2019-01-03T05:37:12.638Z,83.03
2019-01-03T05:38:12.627Z,83.21
2019-01-03T05:39:12.615Z,82.79
2019-01-03T05:40:12.610Z,83.10
2019-01-03T05:41:12.597Z,83.00
2019-01-03T05:42:12.583Z,82.89
2019-01-03T05:43:12.571Z,83.00
2019-01-03T05:44:12.566Z,83.10
2019-01-03T05:45:12.576Z,83.10
2019-01-03T05:46:12.542Z,82.37
2019-01-03T05:47:12.533Z,82.79
2019-01-03T05:48:12.517Z,82.89
2019-01-03T05:49:12.512Z,83.00
2019-01-03T05:50:12.495Z,82.68
2019-01-03T05:51:12.484Z,83.00
2019-01-03T05:52:12.472Z,82.89
2019-01-03T05:53:12.462Z,82.79
2019-01-03T05:54:12.451Z,82.58
2019-01-03T05:55:12.442Z,82.68
2019-01-03T05:56:12.434Z,82.79
2019-01-03T05:57:12.417Z,83.10
2019-01-03T05:58:12.412Z,82.68
2019-01-03T05:59:12.396Z,82.68
2019-01-03T06:00:13.393Z,83.83
2019-01-03T06:01:12.374Z,84.42
2019-01-03T06:02:12.368Z,84.05
2019-01-03T06:03:12.351Z,83.38
2019-01-03T06:04:12.343Z,83.31
2019-01-03T06:05:12.330Z,82.96
2019-01-03T06:06:12.322Z,82.96
2019-01-03T06:07:12.309Z,82.96
2019-01-03T06:08:12.299Z,82.43
2019-01-03T06:09:12.285Z,82.65
2019-01-03T06:10:12.279Z,82.43
2019-01-03T06:11:12.267Z,82.23
2019-01-03T06:12:12.256Z,82.54
2019-01-03T06:13:12.244Z,82.43
2019-01-03T06:14:12.249Z,82.37
2019-01-03T06:15:12.223Z,82.02
2019-01-03T06:16:12.210Z,82.33
2019-01-03T06:17:12.207Z,82.12
2019-01-03T06:18:12.191Z,82.02
2019-01-03T06:19:12.176Z,82.12
2019-01-03T06:20:12.183Z,81.81
2019-01-03T06:21:12.154Z,81.81
2019-01-03T06:22:12.148Z,81.39
2019-01-03T06:23:12.137Z,81.39
2019-01-03T06:24:12.124Z,81.49
2019-01-03T06:25:12.113Z,81.49
2019-01-03T06:26:12.101Z,80.97
2019-01-03T06:27:12.091Z,81.07
2019-01-03T06:28:12.082Z,81.46
2019-01-03T06:29:12.071Z,80.97
2019-01-03T06:30:12.100Z,80.76
2019-01-03T06:31:12.044Z,81.07
2019-01-03T06:32:12.032Z,81.18
2019-01-03T06:33:12.026Z,81.07
2019-01-03T06:34:12.013Z,80.66
2019-01-03T06:35:12.006Z,80.45
2019-01-03T06:36:11.989Z,80.73
2019-01-03T06:37:11.982Z,80.76
2019-01-03T06:38:11.970Z,81.18
2019-01-03T06:39:11.957Z,80.87
2019-01-03T06:40:11.960Z,80.83
2019-01-03T06:41:11.937Z,80.35
2019-01-03T06:42:11.925Z,80.87
2019-01-03T06:43:11.911Z,81.25
2019-01-03T06:44:11.907Z,81.07
2019-01-03T06:45:11.894Z,80.55
2019-01-03T06:46:11.883Z,80.66
2019-01-03T06:47:11.879Z,80.55
2019-01-03T06:48:11.857Z,80.55
2019-01-03T06:49:11.951Z,80.66
2019-01-03T06:50:11.835Z,80.13
2019-01-03T06:51:11.824Z,79.99
2019-01-03T06:52:11.849Z,80.52
2019-01-03T06:53:11.805Z,80.35
2019-01-03T06:54:31.418Z,79.89
2019-01-03T06:55:53.341Z,80.24
2019-01-03T06:56:53.322Z,80.45
2019-01-03T06:58:24.291Z,80.45
2019-01-03T06:59:24.277Z,79.99
2019-01-03T07:00:24.270Z,79.72
2019-01-03T07:01:24.255Z,79.47
2019-01-03T07:02:24.244Z,79.58
2019-01-03T07:03:24.230Z,79.61
2019-01-03T07:04:24.217Z,79.79
2019-01-03T07:05:24.209Z,79.79
2019-01-03T07:06:24.199Z,79.61
2019-01-03T07:07:24.184Z,79.68
2019-01-03T07:08:24.173Z,79.68
2019-01-03T07:09:24.167Z,78.95
2019-01-03T07:10:24.152Z,79.05
2019-01-03T07:11:24.179Z,79.47
2019-01-03T07:12:24.132Z,78.74
2019-01-03T07:13:24.118Z,79.16
2019-01-03T07:14:24.107Z,78.74
2019-01-03T07:15:24.099Z,78.74
2019-01-03T07:16:24.086Z,78.60
2019-01-03T07:17:24.089Z,78.91
2019-01-03T07:18:24.068Z,78.63
2019-01-03T07:19:24.053Z,78.39
2019-01-03T07:20:24.046Z,78.22
2019-01-03T07:21:27.246Z,78.08
2019-01-03T07:22:24.020Z,77.28
2019-01-03T07:23:24.008Z,78.18
2019-01-03T07:24:24.010Z,77.06
2019-01-03T07:25:24.055Z,77.66
2019-01-03T07:26:23.984Z,77.34
2019-01-03T07:27:23.970Z,77.45
2019-01-03T07:28:23.953Z,77.76
2019-01-03T07:29:23.943Z,77.87
2019-01-03T07:30:23.944Z,77.76
2019-01-03T07:31:23.923Z,77.87
2019-01-03T07:32:23.910Z,77.87
2019-01-03T07:33:23.915Z,77.45
2019-01-03T07:34:23.946Z,75.98
2019-01-03T07:35:23.879Z,76.30
2019-01-03T07:36:23.866Z,76.51
2019-01-03T07:37:23.856Z,76.61
2019-01-03T07:38:23.845Z,76.16
2019-01-03T07:39:23.833Z,76.20
2019-01-03T07:40:23.825Z,76.20
2019-01-03T07:41:23.814Z,76.06
2019-01-03T07:42:23.802Z,75.98
2019-01-03T07:43:23.822Z,75.74
2019-01-03T07:44:23.779Z,75.74
2019-01-03T07:45:23.775Z,76.26
2019-01-03T07:46:23.758Z,75.95
2019-01-03T07:47:23.744Z,76.37
2019-01-03T07:48:23.732Z,76.02
2019-01-03T07:49:23.722Z,76.37
2019-01-03T07:50:23.715Z,75.60
2019-01-03T07:51:23.701Z,75.50
2019-01-03T07:52:23.691Z,75.50
2019-01-03T07:53:23.678Z,75.32
2019-01-03T07:54:23.670Z,74.98
2019-01-03T07:55:23.659Z,74.77
2019-01-03T07:56:23.645Z,75.08
2019-01-03T07:57:23.639Z,74.77
2019-01-03T07:58:23.629Z,75.18
2019-01-03T07:59:23.611Z,74.56
2019-01-03T08:00:23.605Z,74.98
2019-01-03T08:01:23.601Z,74.98
2019-01-03T08:02:23.581Z,74.66
2019-01-03T08:03:23.573Z,74.66
2019-01-03T08:04:23.561Z,74.98
2019-01-03T08:05:23.546Z,75.08
2019-01-03T08:06:23.535Z,74.77
2019-01-03T08:07:23.527Z,74.63
2019-01-03T08:08:23.528Z,74.73
2019-01-03T08:09:23.507Z,74.87
2019-01-03T08:10:23.495Z,74.14
2019-01-03T08:11:23.482Z,74.56
2019-01-03T08:12:23.469Z,74.11
2019-01-03T08:13:23.460Z,74.52
2019-01-03T08:14:23.450Z,74.52
2019-01-03T08:15:23.436Z,74.01
2019-01-03T08:16:23.453Z,73.90
2019-01-03T08:17:23.416Z,74.42
2019-01-03T08:18:23.409Z,73.07
2019-01-03T08:19:23.397Z,73.17
2019-01-03T08:20:23.386Z,74.21
2019-01-03T08:21:23.370Z,73.07
2019-01-03T08:22:23.375Z,73.07
2019-01-03T08:23:23.350Z,72.85
2019-01-03T08:24:23.341Z,73.07
2019-01-03T08:25:23.328Z,73.27
2019-01-03T08:26:23.319Z,73.03
2019-01-03T08:27:23.305Z,73.17
2019-01-03T08:28:23.296Z,72.92
2019-01-03T08:29:23.282Z,72.72
2019-01-03T08:30:23.273Z,71.88
2019-01-03T08:31:23.261Z,71.78
2019-01-03T08:32:23.251Z,71.78
2019-01-03T08:33:23.243Z,71.88
2019-01-03T08:34:23.267Z,71.47
2019-01-03T08:35:23.220Z,71.78
2019-01-03T08:36:23.212Z,71.47
2019-01-03T08:37:23.195Z,72.19
2019-01-03T08:38:23.184Z,72.09
2019-01-03T08:39:23.173Z,71.36
2019-01-03T08:40:23.165Z,72.30
2019-01-03T08:41:23.155Z,71.57
2019-01-03T08:42:23.139Z,71.78
2019-01-03T08:43:27.030Z,71.67
2019-01-03T08:44:23.132Z,71.57
2019-01-03T08:45:23.108Z,71.57
2019-01-03T08:46:23.096Z,71.15
2019-01-03T08:47:23.088Z,71.57
2019-01-03T08:48:23.083Z,71.47
2019-01-03T08:49:23.072Z,71.36
2019-01-03T08:50:23.054Z,71.12
2019-01-03T08:51:23.044Z,71.01
2019-01-03T08:52:23.035Z,71.43
2019-01-03T08:53:23.019Z,71.01
2019-01-03T08:54:23.009Z,71.67
2019-01-03T08:55:23.023Z,70.94
2019-01-03T08:56:23.058Z,71.15
2019-01-03T08:57:22.977Z,71.15
2019-01-03T08:58:22.964Z,70.94
2019-01-03T08:59:22.955Z,71.12
2019-01-03T09:00:22.943Z,70.63
2019-01-03T09:01:22.948Z,70.60
2019-01-03T09:02:22.921Z,70.91
2019-01-03T09:03:22.937Z,70.91
2019-01-03T09:04:22.932Z,70.81
2019-01-03T09:05:22.955Z,69.87
2019-01-03T09:06:22.978Z,69.17
2019-01-03T09:07:22.908Z,69.87
2019-01-03T09:08:22.859Z,69.90
2019-01-03T09:09:22.843Z,69.48
2019-01-03T09:10:22.831Z,70.00
2019-01-03T09:11:22.825Z,70.00
2019-01-03T09:12:22.810Z,69.87
2019-01-03T09:13:22.799Z,69.87
2019-01-03T09:14:22.845Z,70.81
2019-01-03T09:15:22.783Z,69.94
2019-01-03T09:16:22.765Z,70.50
2019-01-03T09:17:22.754Z,69.84
2019-01-03T09:18:22.742Z,69.66
2019-01-03T09:19:22.774Z,70.28
2019-01-03T09:20:22.724Z,69.76
2019-01-03T09:21:22.713Z,69.73
2019-01-03T09:22:22.701Z,69.73
2019-01-03T09:23:22.710Z,69.21
2019-01-03T09:24:22.717Z,69.56
2019-01-03T09:25:22.701Z,69.31
2019-01-03T09:26:22.694Z,70.18
2019-01-03T09:27:22.685Z,69.66
2019-01-03T09:28:22.641Z,69.35
2019-01-03T09:29:22.650Z,69.56
2019-01-03T09:30:22.609Z,69.56
2019-01-03T09:31:22.615Z,69.13
2019-01-03T09:32:22.590Z,69.45
2019-01-03T09:33:22.575Z,69.45
2019-01-03T09:34:22.568Z,70.18
2019-01-03T09:35:22.556Z,69.76
2019-01-03T09:36:22.542Z,69.66
2019-01-03T09:37:26.989Z,70.91
2019-01-03T09:38:22.545Z,71.64
2019-01-03T09:39:22.510Z,71.26
2019-01-03T09:40:22.505Z,72.27
2019-01-03T09:41:22.488Z,71.53
2019-01-03T09:42:22.477Z,71.53
2019-01-03T09:43:22.469Z,71.64
2019-01-03T09:44:22.491Z,71.53
2019-01-03T09:45:22.454Z,71.43
2019-01-03T09:46:22.464Z,71.33
2019-01-03T09:47:22.462Z,71.09
2019-01-03T09:48:22.412Z,71.85
2019-01-03T09:49:22.399Z,71.61
2019-01-03T09:50:22.390Z,71.75
2019-01-03T09:51:22.382Z,71.85
2019-01-03T09:52:22.370Z,71.09
2019-01-03T09:53:22.356Z,70.98
2019-01-03T09:54:22.347Z,70.91
2019-01-03T09:55:22.333Z,71.01
2019-01-03T09:56:22.342Z,71.01
2019-01-03T09:57:22.337Z,71.12
2019-01-03T09:58:22.300Z,70.91
2019-01-03T09:59:40.439Z,71.81
2019-01-03T10:01:04.387Z,72.37
2019-01-03T10:02:22.665Z,72.16
2019-01-03T10:03:46.417Z,71.85
2019-01-03T10:05:06.021Z,71.95
2019-01-03T10:06:28.433Z,72.89
2019-01-03T10:07:28.429Z,73.10
2019-01-03T10:08:28.409Z,73.62
2019-01-03T10:09:28.415Z,74.98
2019-01-03T10:10:48.030Z,74.77
2019-01-03T10:12:10.420Z,75.53
2019-01-03T10:13:10.408Z,75.18
2019-01-03T10:14:10.398Z,75.22
2019-01-03T10:15:10.388Z,76.16
2019-01-03T10:16:10.376Z,75.22
2019-01-03T10:17:10.367Z,76.54
2019-01-03T10:18:10.358Z,77.00
2019-01-03T10:19:10.344Z,76.33
2019-01-03T10:20:10.335Z,76.54
2019-01-03T10:21:10.320Z,76.43
2019-01-03T10:22:10.311Z,75.92
2019-01-03T10:23:10.299Z,75.92
2019-01-03T10:24:10.290Z,75.81
2019-01-03T10:25:10.278Z,76.65
2019-01-03T10:26:10.269Z,76.12
2019-01-03T10:27:10.259Z,76.57
2019-01-03T10:28:10.245Z,76.54
2019-01-03T10:29:10.236Z,76.33
2019-01-03T10:30:10.226Z,75.92
2019-01-03T10:31:11.378Z,75.08
2019-01-03T10:32:10.202Z,75.05
2019-01-03T10:33:10.192Z,74.87
2019-01-03T10:34:10.180Z,74.98
2019-01-03T10:35:10.171Z,75.50
2019-01-03T10:36:10.159Z,75.57
2019-01-03T10:37:10.148Z,75.36
2019-01-03T10:38:10.135Z,74.95
2019-01-03T10:39:10.126Z,75.46
2019-01-03T10:40:10.117Z,75.46
2019-01-03T10:41:10.104Z,74.77
2019-01-03T10:42:10.093Z,74.95
2019-01-03T10:43:10.086Z,74.42
2019-01-03T10:44:10.073Z,74.01
2019-01-03T10:45:10.061Z,73.90
2019-01-03T10:46:10.091Z,73.59
2019-01-03T10:47:10.038Z,73.55
2019-01-03T10:48:10.027Z,73.80
2019-01-03T10:49:10.016Z,73.66
2019-01-03T10:50:10.006Z,73.76
2019-01-03T10:51:09.995Z,73.55
2019-01-03T10:52:10.043Z,74.46
2019-01-03T10:53:10.489Z,74.60
2019-01-03T10:54:09.961Z,73.55
2019-01-03T10:55:09.952Z,73.86
2019-01-03T10:56:09.939Z,74.29
2019-01-03T10:57:09.952Z,74.80
2019-01-03T10:58:09.919Z,75.12
2019-01-03T10:59:09.908Z,74.60
2019-01-03T11:00:09.895Z,75.53
2019-01-03T11:01:09.885Z,75.32
2019-01-03T11:02:09.876Z,76.16
2019-01-03T11:03:09.863Z,75.74
2019-01-03T11:04:09.855Z,75.32
2019-01-03T11:05:09.842Z,76.99
2019-01-03T11:06:09.830Z,76.68
2019-01-03T11:07:09.820Z,76.26
2019-01-03T11:08:09.811Z,76.33
2019-01-03T11:09:09.796Z,76.54
2019-01-03T11:10:09.787Z,76.23
2019-01-03T11:11:09.774Z,76.86
2019-01-03T11:12:09.762Z,76.89
2019-01-03T11:13:09.751Z,76.43
2019-01-03T11:14:09.774Z,76.86
2019-01-03T11:15:09.730Z,77.58
2019-01-03T11:16:09.720Z,77.37
2019-01-03T11:17:09.707Z,77.27
2019-01-03T11:18:09.705Z,77.31
2019-01-03T11:19:09.686Z,77.27
2019-01-03T11:20:09.675Z,77.48
2019-01-03T11:21:09.665Z,77.27
2019-01-03T11:22:09.663Z,76.96
2019-01-03T11:23:09.642Z,77.17
2019-01-03T11:24:09.684Z,77.17
2019-01-03T11:25:09.619Z,76.96
2019-01-03T11:26:09.614Z,76.86
2019-01-03T11:27:09.596Z,77.06
2019-01-03T11:28:09.589Z,77.89
2019-01-03T11:29:09.577Z,77.69
2019-01-03T11:30:09.567Z,76.86
2019-01-03T11:31:09.553Z,77.48
2019-01-03T11:32:09.541Z,77.37
2019-01-03T11:33:09.530Z,77.37
2019-01-03T11:34:09.549Z,77.23
2019-01-03T11:35:09.509Z,77.03
2019-01-03T11:36:09.500Z,76.82
2019-01-03T11:37:09.486Z,75.98
2019-01-03T11:38:09.477Z,76.40
2019-01-03T11:39:09.469Z,76.30
2019-01-03T11:43:05.332Z,75.05
2019-01-03T11:44:23.453Z,75.12
2019-01-03T11:45:46.859Z,74.84
2019-01-03T11:46:46.843Z,74.18
2019-01-03T11:48:17.835Z,73.87
2019-01-03T11:49:17.800Z,73.97
2019-01-03T11:50:17.790Z,73.97
2019-01-03T11:51:17.781Z,74.29
2019-01-03T11:52:17.810Z,73.77
2019-01-03T11:53:17.756Z,73.56
2019-01-03T11:54:17.744Z,73.35
2019-01-03T11:55:17.736Z,73.97
2019-01-03T11:56:17.723Z,73.46
2019-01-03T11:57:17.710Z,73.35
2019-01-03T11:58:37.347Z,73.25
2019-01-03T11:59:59.756Z,72.83
2019-01-03T12:00:59.728Z,73.97
2019-01-03T12:01:59.717Z,73.66
2019-01-03T12:02:59.709Z,73.66
2019-01-03T12:03:59.699Z,73.87
2019-01-03T12:04:59.687Z,72.72
2019-01-03T12:05:59.674Z,73.03
2019-01-03T12:06:59.665Z,72.80
2019-01-03T12:07:59.653Z,72.80
2019-01-03T12:08:59.646Z,73.00
2019-01-03T12:09:59.645Z,72.90
2019-01-03T12:10:59.619Z,72.59
2019-01-03T12:11:59.607Z,73.11
2019-01-03T12:12:59.597Z,72.17
2019-01-03T12:13:59.585Z,72.69
2019-01-03T12:14:59.572Z,73.00
2019-01-03T12:15:59.561Z,72.17
2019-01-03T12:16:59.552Z,72.38
2019-01-03T12:17:59.542Z,72.38
2019-01-03T12:18:59.528Z,72.07
2019-01-03T12:19:59.519Z,72.69
2019-01-03T12:20:59.511Z,72.90
2019-01-03T12:21:59.497Z,72.49
2019-01-03T12:22:59.486Z,73.11
2019-01-03T12:23:59.474Z,72.59
2019-01-03T12:24:59.463Z,72.17
2019-01-03T12:25:59.453Z,72.59
2019-01-03T12:26:59.441Z,72.38
2019-01-03T12:27:59.429Z,72.07
2019-01-03T12:28:59.418Z,72.80
2019-01-03T12:29:59.408Z,72.59
2019-01-03T12:30:59.398Z,73.00
2019-01-03T12:31:59.385Z,72.69
2019-01-03T12:32:59.374Z,73.00
2019-01-03T12:33:59.366Z,73.11
2019-01-03T12:34:59.353Z,72.59
2019-01-03T12:35:59.350Z,72.17
2019-01-03T12:36:59.329Z,72.97
2019-01-03T12:37:59.319Z,73.11
2019-01-03T12:38:59.307Z,72.66
2019-01-03T12:39:59.299Z,72.69
2019-01-03T12:40:59.284Z,72.97
2019-01-03T12:41:59.274Z,72.86
2019-01-03T12:42:59.264Z,73.07
2019-01-03T12:43:59.253Z,72.86
2019-01-03T12:44:59.244Z,72.97
2019-01-03T12:45:59.235Z,73.32
2019-01-03T12:46:59.222Z,73.80
2019-01-03T12:47:59.207Z,73.60
2019-01-03T12:48:59.204Z,73.63
2019-01-03T12:49:59.189Z,74.15
2019-01-03T12:50:59.174Z,73.73
2019-01-03T12:51:59.165Z,73.52
2019-01-03T12:52:59.152Z,73.52
2019-01-03T12:53:59.141Z,73.42
2019-01-03T12:54:59.132Z,73.94
2019-01-03T12:55:59.118Z,73.42
2019-01-03T12:56:59.108Z,73.52
2019-01-03T12:57:59.097Z,73.42
2019-01-03T12:58:59.085Z,73.83
2019-01-03T12:59:59.077Z,73.56
2019-01-03T13:00:59.063Z,73.42
2019-01-03T13:01:59.055Z,73.66
2019-01-03T13:02:59.066Z,73.73
2019-01-03T13:03:59.031Z,73.73
2019-01-03T13:04:59.024Z,74.18